DAL2680 KSLC-KSAT
Flight info
| Callsign | DAL2680 |
|---|---|
| Flight time | N/A |
| Altitude | 37000 |
| Route | ZIONZ1 KIMMR FTI BGS SJT TRVLL DNKIN2 |
| Aircraft | A320/M-SDE3FGHIRWY/LB1 |
Departure
| Time | 2026-05-07 20:20 |
|---|---|
| Airport | Salt Lake City International Airport (KSLC) |
Arrival
| Time | N/A |
|---|---|
| Airport | San Antonio International Airport (KSAT) |
| Time | Latitude | Longitude | Altitude | Speed | Heading |
|---|---|---|---|---|---|
| 2026-05-07 19:41 | 40.78642 | -111.98193 | 4231 ft | 0 kts | 175° |
| 2026-05-07 20:08 | 40.78646 | -111.98193 | 4231 ft | 3 kts | 175° |
| 2026-05-07 20:08 | 40.78672 | -111.98196 | 4231 ft | 4 kts | 175° |
| 2026-05-07 20:08 | 40.78699 | -111.98202 | 4231 ft | 4 kts | 157° |
| 2026-05-07 20:08 | 40.78719 | -111.98220 | 4231 ft | 4 kts | 116° |
| 2026-05-07 20:09 | 40.78723 | -111.98241 | 4231 ft | 1 kts | 85° |
| 2026-05-07 20:09 | 40.78723 | -111.98244 | 4231 ft | 0 kts | 85° |
| 2026-05-07 20:11 | 40.78723 | -111.98230 | 4231 ft | 3 kts | 85° |
| 2026-05-07 20:11 | 40.78727 | -111.98170 | 4231 ft | 10 kts | 85° |
| 2026-05-07 20:12 | 40.78734 | -111.98058 | 4231 ft | 15 kts | 85° |
| 2026-05-07 20:12 | 40.78745 | -111.97912 | 4231 ft | 16 kts | 84° |
| 2026-05-07 20:12 | 40.78754 | -111.97766 | 4231 ft | 16 kts | 86° |
| 2026-05-07 20:12 | 40.78819 | -111.97690 | 4231 ft | 14 kts | 358° |
| 2026-05-07 20:13 | 40.78921 | -111.97696 | 4231 ft | 16 kts | 356° |
| 2026-05-07 20:13 | 40.79046 | -111.97712 | 4231 ft | 20 kts | 353° |
| 2026-05-07 20:13 | 40.79191 | -111.97733 | 4231 ft | 21 kts | 354° |
| 2026-05-07 20:13 | 40.79336 | -111.97747 | 4231 ft | 21 kts | 357° |
| 2026-05-07 20:14 | 40.79477 | -111.97766 | 4231 ft | 20 kts | 356° |
| 2026-05-07 20:14 | 40.79614 | -111.97779 | 4230 ft | 20 kts | 353° |
| 2026-05-07 20:14 | 40.79747 | -111.97797 | 4231 ft | 19 kts | 356° |
| 2026-05-07 20:14 | 40.79875 | -111.97811 | 4231 ft | 18 kts | 354° |
| 2026-05-07 20:15 | 40.79999 | -111.97826 | 4231 ft | 17 kts | 355° |
| 2026-05-07 20:15 | 40.80115 | -111.97843 | 4231 ft | 16 kts | 354° |
| 2026-05-07 20:15 | 40.80226 | -111.97850 | 4231 ft | 16 kts | 3° |
| 2026-05-07 20:15 | 40.80338 | -111.97828 | 4231 ft | 17 kts | 9° |
| 2026-05-07 20:16 | 40.80454 | -111.97828 | 4231 ft | 15 kts | 354° |
| 2026-05-07 20:16 | 40.80533 | -111.97838 | 4231 ft | 11 kts | 355° |
| 2026-05-07 20:16 | 40.80606 | -111.97846 | 4231 ft | 10 kts | 355° |
| 2026-05-07 20:16 | 40.80668 | -111.97853 | 4230 ft | 8 kts | 355° |
| 2026-05-07 20:17 | 40.80718 | -111.97858 | 4230 ft | 6 kts | 359° |
| 2026-05-07 20:17 | 40.80727 | -111.97854 | 4230 ft | 0 kts | 19° |
| 2026-05-07 20:18 | 40.80734 | -111.97850 | 4230 ft | 5 kts | 25° |
| 2026-05-07 20:19 | 40.80751 | -111.97798 | 4229 ft | 6 kts | 82° |
| 2026-05-07 20:19 | 40.80738 | -111.97752 | 4229 ft | 5 kts | 134° |
| 2026-05-07 20:19 | 40.80711 | -111.97719 | 4229 ft | 9 kts | 140° |
| 2026-05-07 20:19 | 40.80562 | -111.97676 | 4232 ft | 38 kts | 173° |
| 2026-05-07 20:20 | 40.80047 | -111.97616 | 4232 ft | 108 kts | 175° |
| 2026-05-07 20:20 | 40.79114 | -111.97507 | 4232 ft | 163 kts | 175° |
| 2026-05-07 20:20 | 40.77890 | -111.97357 | 4608 ft | 178 kts | 174° |
| 2026-05-07 20:20 | 40.76664 | -111.97200 | 5358 ft | 174 kts | 174° |
| 2026-05-07 20:21 | 40.75444 | -111.97041 | 5843 ft | 178 kts | 174° |
| 2026-05-07 20:21 | 40.74154 | -111.96870 | 6106 ft | 196 kts | 174° |
| 2026-05-07 20:21 | 40.72734 | -111.96729 | 6354 ft | 213 kts | 180° |
| 2026-05-07 20:21 | 40.71174 | -111.96664 | 6597 ft | 234 kts | 180° |
| 2026-05-07 20:22 | 40.69450 | -111.96587 | 6730 ft | 262 kts | 180° |
| 2026-05-07 20:22 | 40.67559 | -111.96493 | 7138 ft | 280 kts | 180° |
| 2026-05-07 20:22 | 40.65589 | -111.96369 | 7802 ft | 286 kts | 179° |
| 2026-05-07 20:22 | 40.63581 | -111.96231 | 8508 ft | 291 kts | 179° |
| 2026-05-07 20:23 | 40.61549 | -111.96110 | 9227 ft | 295 kts | 179° |
| 2026-05-07 20:23 | 40.59515 | -111.95992 | 9968 ft | 297 kts | 179° |
| 2026-05-07 20:23 | 40.57436 | -111.95871 | 10693 ft | 300 kts | 180° |
| 2026-05-07 20:23 | 40.55328 | -111.95759 | 11397 ft | 305 kts | 180° |
| 2026-05-07 20:24 | 40.53192 | -111.95623 | 12157 ft | 308 kts | 180° |
| 2026-05-07 20:24 | 40.51040 | -111.95500 | 12895 ft | 310 kts | 181° |
| 2026-05-07 20:24 | 40.48862 | -111.95380 | 13545 ft | 316 kts | 181° |
| 2026-05-07 20:24 | 40.46650 | -111.95253 | 14157 ft | 322 kts | 181° |
| 2026-05-07 20:25 | 40.44326 | -111.95115 | 14307 ft | 345 kts | 181° |
| 2026-05-07 20:25 | 40.41855 | -111.94954 | 14439 ft | 365 kts | 180° |
| 2026-05-07 20:25 | 40.39286 | -111.94776 | 14708 ft | 379 kts | 180° |
| 2026-05-07 20:25 | 40.36627 | -111.94584 | 15249 ft | 385 kts | 180° |
| 2026-05-07 20:26 | 40.33930 | -111.94385 | 15807 ft | 390 kts | 180° |
| 2026-05-07 20:26 | 40.31202 | -111.94188 | 16365 ft | 395 kts | 180° |
| 2026-05-07 20:26 | 40.28446 | -111.93774 | 16903 ft | 403 kts | 171° |
| 2026-05-07 20:26 | 40.26643 | -111.93138 | 17270 ft | 408 kts | 163° |
| 2026-05-07 20:27 | 40.20470 | -111.88766 | 18476 ft | 421 kts | 149° |
| 2026-05-07 20:27 | 40.17950 | -111.86757 | 19007 ft | 425 kts | 149° |
| 2026-05-07 20:27 | 40.15411 | -111.84737 | 19531 ft | 428 kts | 149° |
| 2026-05-07 20:28 | 40.12885 | -111.82633 | 20038 ft | 432 kts | 147° |
| 2026-05-07 20:28 | 40.10538 | -111.80148 | 20525 ft | 437 kts | 134° |
| 2026-05-07 20:28 | 40.08608 | -111.77075 | 21018 ft | 439 kts | 123° |
| 2026-05-07 20:28 | 40.07052 | -111.73690 | 21499 ft | 442 kts | 118° |
| 2026-05-07 20:29 | 40.05501 | -111.70210 | 21983 ft | 445 kts | 119° |
| 2026-05-07 20:29 | 40.03901 | -111.66731 | 22417 ft | 449 kts | 120° |
| 2026-05-07 20:29 | 40.02267 | -111.63241 | 22853 ft | 452 kts | 120° |
| 2026-05-07 20:29 | 40.00615 | -111.59732 | 23271 ft | 455 kts | 120° |
| 2026-05-07 20:30 | 39.98958 | -111.56196 | 23695 ft | 458 kts | 120° |
| 2026-05-07 20:30 | 39.97296 | -111.52634 | 24120 ft | 460 kts | 119° |
| 2026-05-07 20:30 | 39.95633 | -111.49053 | 24506 ft | 463 kts | 119° |
| 2026-05-07 20:30 | 39.93961 | -111.45438 | 24879 ft | 466 kts | 119° |
| 2026-05-07 20:31 | 39.92307 | -111.41855 | 25237 ft | 468 kts | 119° |
| 2026-05-07 20:31 | 39.90619 | -111.38203 | 25597 ft | 470 kts | 119° |
| 2026-05-07 20:31 | 39.89494 | -111.35776 | 25833 ft | 472 kts | 119° |
| 2026-05-07 20:31 | 39.87206 | -111.30852 | 26290 ft | 475 kts | 119° |
| 2026-05-07 20:32 | 39.85505 | -111.27210 | 26621 ft | 477 kts | 119° |
| 2026-05-07 20:32 | 39.83774 | -111.23511 | 26924 ft | 480 kts | 119° |
| 2026-05-07 20:32 | 39.82033 | -111.19794 | 27249 ft | 482 kts | 119° |
| 2026-05-07 20:32 | 39.80288 | -111.16061 | 27555 ft | 484 kts | 119° |
| 2026-05-07 20:33 | 39.78532 | -111.12309 | 27846 ft | 486 kts | 119° |
| 2026-05-07 20:33 | 39.76767 | -111.08542 | 28142 ft | 488 kts | 119° |
| 2026-05-07 20:33 | 39.75593 | -111.06038 | 28343 ft | 489 kts | 119° |
| 2026-05-07 20:33 | 39.73216 | -111.00971 | 28717 ft | 492 kts | 119° |
| 2026-05-07 20:34 | 39.71452 | -110.97217 | 28969 ft | 493 kts | 120° |
| 2026-05-07 20:34 | 39.69655 | -110.93408 | 29211 ft | 495 kts | 120° |
| 2026-05-07 20:34 | 39.67847 | -110.89585 | 29464 ft | 497 kts | 120° |
| 2026-05-07 20:34 | 39.66033 | -110.85751 | 29704 ft | 498 kts | 120° |
| 2026-05-07 20:35 | 39.64829 | -110.83204 | 29832 ft | 500 kts | 120° |
| 2026-05-07 20:35 | 39.63005 | -110.79341 | 30060 ft | 501 kts | 120° |
| 2026-05-07 20:35 | 39.61177 | -110.75468 | 30286 ft | 503 kts | 120° |
| 2026-05-07 20:35 | 39.58751 | -110.70352 | 30684 ft | 501 kts | 120° |
| 2026-05-07 20:36 | 39.57516 | -110.67756 | 30875 ft | 501 kts | 120° |
| 2026-05-07 20:36 | 39.55685 | -110.63915 | 31165 ft | 500 kts | 120° |
| 2026-05-07 20:36 | 39.53856 | -110.60083 | 31446 ft | 499 kts | 120° |
| 2026-05-07 20:36 | 39.52031 | -110.56262 | 31719 ft | 499 kts | 120° |
| 2026-05-07 20:37 | 39.50226 | -110.52486 | 31982 ft | 499 kts | 120° |
| 2026-05-07 20:37 | 39.48401 | -110.48669 | 32256 ft | 498 kts | 120° |
| 2026-05-07 20:37 | 39.46574 | -110.44845 | 32514 ft | 498 kts | 120° |
| 2026-05-07 20:37 | 39.44752 | -110.41038 | 32771 ft | 498 kts | 120° |
| 2026-05-07 20:38 | 39.42927 | -110.37231 | 33027 ft | 497 kts | 120° |
| 2026-05-07 20:38 | 39.41104 | -110.33437 | 33284 ft | 497 kts | 120° |
| 2026-05-07 20:38 | 39.39277 | -110.29643 | 33532 ft | 497 kts | 120° |
| 2026-05-07 20:38 | 39.37449 | -110.25854 | 33770 ft | 496 kts | 120° |
| 2026-05-07 20:39 | 39.35620 | -110.22064 | 34028 ft | 496 kts | 120° |
| 2026-05-07 20:39 | 39.33820 | -110.18335 | 34276 ft | 495 kts | 120° |
| 2026-05-07 20:39 | 39.31998 | -110.14557 | 34532 ft | 494 kts | 119° |
| 2026-05-07 20:39 | 39.30180 | -110.10792 | 34787 ft | 493 kts | 119° |
| 2026-05-07 20:40 | 39.28359 | -110.07030 | 35036 ft | 493 kts | 119° |
| 2026-05-07 20:40 | 39.26540 | -110.03287 | 35284 ft | 492 kts | 119° |
| 2026-05-07 20:40 | 39.24723 | -109.99549 | 35500 ft | 491 kts | 119° |
| 2026-05-07 20:40 | 39.22842 | -109.95874 | 35716 ft | 492 kts | 125° |
| 2026-05-07 20:41 | 39.20634 | -109.92486 | 35886 ft | 493 kts | 130° |
| 2026-05-07 20:41 | 39.18360 | -109.89174 | 36082 ft | 493 kts | 130° |
| 2026-05-07 20:41 | 39.16116 | -109.85917 | 36278 ft | 492 kts | 130° |
| 2026-05-07 20:41 | 39.13835 | -109.82616 | 36457 ft | 492 kts | 130° |
| 2026-05-07 20:42 | 39.11559 | -109.79318 | 36656 ft | 491 kts | 130° |
| 2026-05-07 20:42 | 39.09297 | -109.76038 | 36892 ft | 488 kts | 130° |
| 2026-05-07 20:42 | 39.07050 | -109.72782 | 37104 ft | 486 kts | 130° |
| 2026-05-07 20:43 | 39.02579 | -109.66310 | 37155 ft | 481 kts | 130° |
| 2026-05-07 20:43 | 38.98134 | -109.59898 | 37156 ft | 480 kts | 130° |
| 2026-05-07 20:44 | 38.93692 | -109.53503 | 37157 ft | 479 kts | 130° |
| 2026-05-07 20:44 | 38.89272 | -109.47155 | 37155 ft | 479 kts | 130° |
| 2026-05-07 20:45 | 38.84834 | -109.40789 | 37158 ft | 478 kts | 130° |
| 2026-05-07 20:45 | 38.80400 | -109.34440 | 37167 ft | 478 kts | 130° |
| 2026-05-07 20:46 | 38.75950 | -109.28081 | 37176 ft | 478 kts | 130° |
| 2026-05-07 20:46 | 38.71507 | -109.21741 | 37190 ft | 477 kts | 131° |
| 2026-05-07 20:47 | 38.67058 | -109.15419 | 37200 ft | 477 kts | 131° |
| 2026-05-07 20:47 | 38.62636 | -109.09152 | 37210 ft | 477 kts | 131° |
| 2026-05-07 20:48 | 38.58190 | -109.02854 | 37213 ft | 476 kts | 131° |
| 2026-05-07 20:48 | 38.53748 | -108.96559 | 37219 ft | 476 kts | 131° |
| 2026-05-07 20:49 | 38.50059 | -108.91344 | 37213 ft | 476 kts | 131° |
| 2026-05-07 20:49 | 38.44862 | -108.84037 | 37213 ft | 475 kts | 131° |
| 2026-05-07 20:50 | 38.40427 | -108.77805 | 37231 ft | 475 kts | 131° |
| 2026-05-07 20:50 | 38.35984 | -108.71567 | 37248 ft | 475 kts | 131° |
| 2026-05-07 20:51 | 38.31562 | -108.65358 | 37250 ft | 475 kts | 132° |
| 2026-05-07 20:51 | 38.27109 | -108.59132 | 37254 ft | 475 kts | 132° |
| 2026-05-07 20:52 | 38.22653 | -108.52919 | 37257 ft | 474 kts | 132° |
| 2026-05-07 20:52 | 38.18205 | -108.46728 | 37260 ft | 474 kts | 132° |
| 2026-05-07 20:53 | 38.13779 | -108.40594 | 37255 ft | 473 kts | 132° |
| 2026-05-07 20:53 | 38.09329 | -108.34423 | 37254 ft | 473 kts | 132° |
| 2026-05-07 20:54 | 38.04881 | -108.28267 | 37259 ft | 473 kts | 133° |
| 2026-05-07 20:54 | 38.00427 | -108.22123 | 37271 ft | 473 kts | 133° |
| 2026-05-07 20:55 | 37.96007 | -108.16030 | 37279 ft | 472 kts | 133° |
| 2026-05-07 20:55 | 37.91555 | -108.09898 | 37287 ft | 472 kts | 133° |
| 2026-05-07 20:56 | 37.87105 | -108.03780 | 37295 ft | 472 kts | 133° |
| 2026-05-07 20:57 | 37.78428 | -107.91888 | 37299 ft | 472 kts | 133° |
| 2026-05-07 20:57 | 37.74618 | -107.86700 | 37298 ft | 471 kts | 133° |
| 2026-05-07 20:58 | 37.70317 | -107.80824 | 37303 ft | 471 kts | 133° |
| 2026-05-07 20:58 | 37.65851 | -107.74762 | 37288 ft | 470 kts | 133° |
| 2026-05-07 20:59 | 37.61422 | -107.68752 | 37283 ft | 470 kts | 133° |
| 2026-05-07 20:59 | 37.56963 | -107.62706 | 37276 ft | 470 kts | 133° |
| 2026-05-07 21:00 | 37.52515 | -107.56679 | 37266 ft | 470 kts | 134° |
| 2026-05-07 21:00 | 37.48064 | -107.50654 | 37259 ft | 470 kts | 134° |
| 2026-05-07 21:01 | 37.43605 | -107.44639 | 37253 ft | 470 kts | 134° |
| 2026-05-07 21:01 | 37.39144 | -107.38633 | 37258 ft | 469 kts | 134° |
| 2026-05-07 21:02 | 37.34699 | -107.32677 | 37268 ft | 469 kts | 134° |
| 2026-05-07 21:02 | 37.30238 | -107.26706 | 37271 ft | 468 kts | 134° |
| 2026-05-07 21:03 | 37.25782 | -107.20732 | 37265 ft | 468 kts | 134° |
| 2026-05-07 21:03 | 37.21328 | -107.14779 | 37251 ft | 467 kts | 135° |
| 2026-05-07 21:04 | 37.16906 | -107.08891 | 37242 ft | 466 kts | 135° |
| 2026-05-07 21:04 | 37.12462 | -107.02982 | 37236 ft | 466 kts | 135° |
| 2026-05-07 21:05 | 37.08012 | -106.97076 | 37250 ft | 466 kts | 135° |
| 2026-05-07 21:05 | 37.03559 | -106.91173 | 37263 ft | 466 kts | 135° |
| 2026-05-07 21:06 | 36.99105 | -106.85267 | 37277 ft | 466 kts | 135° |
| 2026-05-07 21:06 | 36.94676 | -106.79420 | 37286 ft | 466 kts | 136° |
| 2026-05-07 21:07 | 36.90214 | -106.73544 | 37224 ft | 464 kts | 136° |
| 2026-05-07 21:07 | 36.85777 | -106.67702 | 37215 ft | 463 kts | 136° |
| 2026-05-07 21:08 | 36.81340 | -106.61863 | 37214 ft | 463 kts | 136° |
| 2026-05-07 21:08 | 36.76922 | -106.56058 | 37214 ft | 464 kts | 136° |
| 2026-05-07 21:09 | 36.72469 | -106.50220 | 37213 ft | 463 kts | 136° |
| 2026-05-07 21:09 | 36.68015 | -106.44408 | 37223 ft | 463 kts | 137° |
| 2026-05-07 21:10 | 36.63551 | -106.38597 | 37249 ft | 463 kts | 137° |
| 2026-05-07 21:10 | 36.59104 | -106.32797 | 37256 ft | 463 kts | 137° |
| 2026-05-07 21:11 | 36.54679 | -106.27036 | 37257 ft | 463 kts | 137° |
| 2026-05-07 21:11 | 36.47994 | -106.18383 | 37247 ft | 462 kts | 137° |
| 2026-05-07 21:12 | 36.43539 | -106.12635 | 37240 ft | 461 kts | 137° |
| 2026-05-07 21:12 | 36.39130 | -106.06936 | 37229 ft | 460 kts | 137° |
| 2026-05-07 21:13 | 36.34695 | -106.01215 | 37231 ft | 459 kts | 137° |
| 2026-05-07 21:13 | 36.30265 | -105.95506 | 37223 ft | 459 kts | 137° |
| 2026-05-07 21:14 | 36.25858 | -105.89829 | 37221 ft | 458 kts | 137° |
| 2026-05-07 21:14 | 36.21428 | -105.84140 | 37218 ft | 459 kts | 137° |
| 2026-05-07 21:15 | 36.16993 | -105.78459 | 37213 ft | 458 kts | 137° |
| 2026-05-07 21:15 | 36.12555 | -105.72795 | 37207 ft | 458 kts | 137° |
| 2026-05-07 21:16 | 36.08110 | -105.67129 | 37206 ft | 458 kts | 137° |
| 2026-05-07 21:16 | 36.03682 | -105.61493 | 37203 ft | 459 kts | 137° |
| 2026-05-07 21:17 | 35.99227 | -105.55823 | 37199 ft | 459 kts | 138° |
| 2026-05-07 21:17 | 35.94798 | -105.50203 | 37201 ft | 459 kts | 138° |
| 2026-05-07 21:18 | 35.90345 | -105.44560 | 37195 ft | 458 kts | 139° |
| 2026-05-07 21:18 | 35.85889 | -105.38922 | 37181 ft | 457 kts | 139° |
| 2026-05-07 21:19 | 35.81470 | -105.33338 | 37184 ft | 458 kts | 139° |
| 2026-05-07 21:19 | 35.77022 | -105.27722 | 37174 ft | 458 kts | 140° |
| 2026-05-07 21:20 | 35.72568 | -105.22115 | 37171 ft | 457 kts | 140° |
| 2026-05-07 21:20 | 35.68116 | -105.16524 | 37163 ft | 457 kts | 140° |
| 2026-05-07 21:21 | 35.63640 | -105.10974 | 37158 ft | 456 kts | 141° |
| 2026-05-07 21:21 | 35.59085 | -105.05600 | 37153 ft | 455 kts | 143° |
| 2026-05-07 21:22 | 35.54475 | -105.00254 | 37149 ft | 455 kts | 143° |
| 2026-05-07 21:22 | 35.49899 | -104.94916 | 37147 ft | 456 kts | 143° |
| 2026-05-07 21:23 | 35.45318 | -104.89539 | 37143 ft | 456 kts | 143° |
| 2026-05-07 21:23 | 35.40734 | -104.84157 | 37144 ft | 456 kts | 143° |
| 2026-05-07 21:24 | 35.36141 | -104.78781 | 37140 ft | 456 kts | 143° |
| 2026-05-07 21:24 | 35.32318 | -104.74327 | 37135 ft | 455 kts | 144° |
| 2026-05-07 21:25 | 35.26972 | -104.68106 | 37123 ft | 455 kts | 144° |
| 2026-05-07 21:25 | 35.23150 | -104.63662 | 37115 ft | 456 kts | 144° |
| 2026-05-07 21:26 | 35.18543 | -104.58313 | 37104 ft | 456 kts | 144° |
| 2026-05-07 21:26 | 35.13937 | -104.52978 | 37095 ft | 455 kts | 144° |
| 2026-05-07 21:27 | 35.09333 | -104.47648 | 37091 ft | 455 kts | 144° |
| 2026-05-07 21:27 | 35.04758 | -104.42345 | 37084 ft | 456 kts | 144° |
| 2026-05-07 21:28 | 35.00156 | -104.37024 | 37083 ft | 455 kts | 145° |
| 2026-05-07 21:28 | 34.95537 | -104.31715 | 37081 ft | 455 kts | 145° |
| 2026-05-07 21:29 | 34.90929 | -104.26421 | 37078 ft | 455 kts | 146° |
| 2026-05-07 21:29 | 34.86350 | -104.21162 | 37076 ft | 455 kts | 146° |
| 2026-05-07 21:30 | 34.81750 | -104.15884 | 37069 ft | 454 kts | 146° |
| 2026-05-07 21:30 | 34.77149 | -104.10609 | 37074 ft | 453 kts | 146° |
| 2026-05-07 21:31 | 34.72548 | -104.05359 | 37080 ft | 453 kts | 147° |
| 2026-05-07 21:31 | 34.67979 | -104.00155 | 37078 ft | 453 kts | 147° |
| 2026-05-07 21:32 | 34.63377 | -103.94914 | 37073 ft | 453 kts | 147° |
| 2026-05-07 21:32 | 34.58782 | -103.89675 | 37070 ft | 453 kts | 148° |
| 2026-05-07 21:33 | 34.54174 | -103.84437 | 37070 ft | 453 kts | 148° |
| 2026-05-07 21:33 | 34.49585 | -103.79239 | 37069 ft | 453 kts | 148° |
| 2026-05-07 21:34 | 34.44971 | -103.74016 | 37073 ft | 454 kts | 148° |
| 2026-05-07 21:34 | 34.40349 | -103.68789 | 37079 ft | 454 kts | 148° |
| 2026-05-07 21:35 | 34.35721 | -103.63563 | 37085 ft | 455 kts | 148° |
| 2026-05-07 21:35 | 34.31121 | -103.58387 | 37085 ft | 454 kts | 148° |
| 2026-05-07 21:36 | 34.26480 | -103.53179 | 37084 ft | 454 kts | 148° |
| 2026-05-07 21:36 | 34.21874 | -103.48006 | 37084 ft | 454 kts | 148° |
| 2026-05-07 21:37 | 34.17242 | -103.42807 | 37092 ft | 454 kts | 148° |
| 2026-05-07 21:37 | 34.12609 | -103.37611 | 37086 ft | 454 kts | 148° |
| 2026-05-07 21:38 | 34.07969 | -103.32427 | 37084 ft | 454 kts | 148° |
| 2026-05-07 21:38 | 34.03322 | -103.27246 | 37081 ft | 454 kts | 148° |
| 2026-05-07 21:39 | 33.98694 | -103.22087 | 37094 ft | 455 kts | 148° |
| 2026-05-07 21:39 | 33.94037 | -103.16914 | 37099 ft | 454 kts | 149° |
| 2026-05-07 21:40 | 33.89394 | -103.11748 | 37102 ft | 454 kts | 149° |
| 2026-05-07 21:40 | 33.84777 | -103.06619 | 37098 ft | 453 kts | 149° |
| 2026-05-07 21:41 | 33.80132 | -103.01476 | 37099 ft | 453 kts | 150° |
| 2026-05-07 21:41 | 33.75510 | -102.96372 | 37108 ft | 454 kts | 150° |
| 2026-05-07 21:42 | 33.70859 | -102.91234 | 37096 ft | 454 kts | 150° |
| 2026-05-07 21:42 | 33.66197 | -102.86095 | 37100 ft | 455 kts | 150° |
| 2026-05-07 21:43 | 33.61525 | -102.80966 | 37101 ft | 455 kts | 150° |
| 2026-05-07 21:43 | 33.56850 | -102.75830 | 37103 ft | 455 kts | 150° |
| 2026-05-07 21:44 | 33.52175 | -102.70693 | 37099 ft | 456 kts | 150° |
| 2026-05-07 21:44 | 33.47525 | -102.65591 | 37099 ft | 456 kts | 150° |
| 2026-05-07 21:45 | 33.42826 | -102.60458 | 37111 ft | 457 kts | 150° |
| 2026-05-07 21:45 | 33.38133 | -102.55320 | 37111 ft | 457 kts | 150° |
| 2026-05-07 21:46 | 33.33428 | -102.50188 | 37108 ft | 457 kts | 150° |
| 2026-05-07 21:46 | 33.28717 | -102.45076 | 37111 ft | 457 kts | 150° |
| 2026-05-07 21:47 | 33.24030 | -102.39986 | 37113 ft | 457 kts | 150° |
| 2026-05-07 21:47 | 33.19324 | -102.34865 | 37113 ft | 457 kts | 150° |
| 2026-05-07 21:48 | 33.14628 | -102.29764 | 37112 ft | 456 kts | 150° |
| 2026-05-07 21:48 | 33.09927 | -102.24680 | 37111 ft | 455 kts | 150° |
| 2026-05-07 21:49 | 33.05223 | -102.19610 | 37114 ft | 456 kts | 150° |
| 2026-05-07 21:49 | 33.00547 | -102.14562 | 37119 ft | 455 kts | 150° |
| 2026-05-07 21:50 | 32.95845 | -102.09496 | 37123 ft | 455 kts | 151° |
| 2026-05-07 21:50 | 32.91149 | -102.04443 | 37123 ft | 455 kts | 150° |
| 2026-05-07 21:51 | 32.86484 | -101.99427 | 37117 ft | 454 kts | 151° |
| 2026-05-07 21:51 | 32.81782 | -101.94388 | 37104 ft | 455 kts | 151° |
| 2026-05-07 21:52 | 32.77064 | -101.89335 | 37101 ft | 456 kts | 151° |
| 2026-05-07 21:52 | 32.72382 | -101.84325 | 37109 ft | 456 kts | 151° |
| 2026-05-07 21:53 | 32.67667 | -101.79293 | 37106 ft | 455 kts | 151° |
| 2026-05-07 21:53 | 32.62950 | -101.74268 | 37107 ft | 455 kts | 151° |
| 2026-05-07 21:54 | 32.58235 | -101.69249 | 37110 ft | 455 kts | 151° |
| 2026-05-07 21:54 | 32.53522 | -101.64236 | 37105 ft | 454 kts | 151° |
| 2026-05-07 21:55 | 32.48822 | -101.59235 | 37101 ft | 454 kts | 151° |
| 2026-05-07 21:55 | 32.44144 | -101.54277 | 37103 ft | 453 kts | 151° |
| 2026-05-07 21:56 | 32.39439 | -101.49312 | 37103 ft | 453 kts | 151° |
| 2026-05-07 21:56 | 32.34723 | -101.44370 | 37094 ft | 452 kts | 152° |
| 2026-05-07 21:57 | 32.29982 | -101.39488 | 37084 ft | 451 kts | 152° |
| 2026-05-07 21:57 | 32.25241 | -101.34627 | 37077 ft | 451 kts | 152° |
| 2026-05-07 21:58 | 32.20489 | -101.29764 | 37072 ft | 452 kts | 152° |
| 2026-05-07 21:58 | 32.15765 | -101.24917 | 37073 ft | 453 kts | 152° |
| 2026-05-07 21:59 | 32.11018 | -101.20039 | 37076 ft | 453 kts | 152° |
| 2026-05-07 21:59 | 32.06266 | -101.15162 | 37072 ft | 453 kts | 152° |
| 2026-05-07 22:00 | 32.01505 | -101.10293 | 37074 ft | 454 kts | 152° |
| 2026-05-07 22:00 | 31.96945 | -101.05647 | 37075 ft | 454 kts | 152° |
| 2026-05-07 22:01 | 31.94376 | -101.03027 | 37076 ft | 454 kts | 152° |
| 2026-05-07 22:01 | 31.89602 | -100.98142 | 37080 ft | 454 kts | 152° |
| 2026-05-07 22:02 | 31.84823 | -100.93275 | 37079 ft | 454 kts | 152° |
| 2026-05-07 22:02 | 31.80027 | -100.88409 | 37084 ft | 455 kts | 152° |
| 2026-05-07 22:03 | 31.75229 | -100.83547 | 37095 ft | 455 kts | 152° |
| 2026-05-07 22:03 | 31.70424 | -100.78683 | 37081 ft | 456 kts | 152° |
| 2026-05-07 22:04 | 31.65641 | -100.73847 | 37081 ft | 457 kts | 152° |
| 2026-05-07 22:04 | 31.60817 | -100.68971 | 37089 ft | 457 kts | 152° |
| 2026-05-07 22:05 | 31.55985 | -100.64094 | 37094 ft | 458 kts | 152° |
| 2026-05-07 22:05 | 31.51138 | -100.59210 | 37101 ft | 459 kts | 152° |
| 2026-05-07 22:06 | 31.46290 | -100.54334 | 37094 ft | 459 kts | 152° |
| 2026-05-07 22:06 | 31.41441 | -100.49458 | 37104 ft | 459 kts | 152° |
| 2026-05-07 22:07 | 31.36567 | -100.44718 | 37101 ft | 450 kts | 158° |
| 2026-05-07 22:07 | 31.31455 | -100.40477 | 37106 ft | 450 kts | 158° |
| 2026-05-07 22:08 | 31.26345 | -100.36251 | 37110 ft | 450 kts | 158° |
| 2026-05-07 22:08 | 31.21227 | -100.32030 | 37110 ft | 450 kts | 158° |
| 2026-05-07 22:09 | 31.16102 | -100.27820 | 37115 ft | 450 kts | 158° |
| 2026-05-07 22:09 | 31.11018 | -100.23635 | 37122 ft | 450 kts | 158° |
| 2026-05-07 22:10 | 31.05898 | -100.19420 | 37130 ft | 450 kts | 158° |
| 2026-05-07 22:10 | 31.00776 | -100.15207 | 37136 ft | 449 kts | 158° |
| 2026-05-07 22:11 | 30.95668 | -100.11012 | 37136 ft | 449 kts | 158° |
| 2026-05-07 22:11 | 30.90564 | -100.06835 | 37130 ft | 448 kts | 158° |
| 2026-05-07 22:12 | 30.85488 | -100.02686 | 37121 ft | 449 kts | 157° |
| 2026-05-07 22:12 | 30.80367 | -99.98501 | 37117 ft | 449 kts | 158° |
| 2026-05-07 22:13 | 30.76111 | -99.95027 | 37113 ft | 449 kts | 157° |
| 2026-05-07 22:13 | 30.70988 | -99.90856 | 36917 ft | 450 kts | 157° |
| 2026-05-07 22:14 | 30.68413 | -99.88765 | 36104 ft | 453 kts | 157° |
| 2026-05-07 22:14 | 30.64984 | -99.85983 | 34965 ft | 455 kts | 156° |
| 2026-05-07 22:14 | 30.62378 | -99.83867 | 34108 ft | 457 kts | 155° |
| 2026-05-07 22:14 | 30.60614 | -99.82431 | 33453 ft | 460 kts | 155° |
| 2026-05-07 22:15 | 30.57988 | -99.80259 | 32417 ft | 466 kts | 153° |
| 2026-05-07 22:15 | 30.55393 | -99.77990 | 31378 ft | 470 kts | 151° |